Terminal Aerodrome Forecast
Issued by NWS Sterling, VA

Current Version | Previous Version | Text Only | Print | Product List | Glossary Off
Versions: 1 2 3 4 5 6 7 8 9 10 11 12 13 14 15 16

015
FTUS41 KLWX 301721
TAFMRB
TAF
KMRB 301721Z 3018/0118 09004KT P6SM OVC015
     FM010000 14005KT 2SM -RA BR OVC008
     FM010300 14008KT 2SM -RA BR OVC003
     FM011500 15007KT 3SM BR OVC003
     FM011600 15007KT 3SM BR OVC008=

USA.gov is the U.S. government's official web portal to all federal, state and local government web resources and services.